createdAt,value
2018-07-01T00:00:54.553Z,98148.20
2018-07-01T00:03:23.407Z,98150.70
2018-07-01T00:05:52.183Z,98153.86
2018-07-01T00:08:21.823Z,98162.36
2018-07-01T00:10:50.539Z,98164.83
2018-07-01T00:13:19.234Z,98160.48
2018-07-01T00:15:47.933Z,98163.21
2018-07-01T00:18:16.718Z,98160.77
2018-07-01T00:20:45.557Z,98169.13
2018-07-01T00:23:14.316Z,98177.48
2018-07-01T00:25:43.091Z,98176.77
2018-07-01T00:28:11.769Z,98179.19
2018-07-01T00:30:40.477Z,98182.00
2018-07-01T00:33:09.233Z,98183.18
2018-07-01T00:35:37.930Z,98173.40
2018-07-01T00:38:06.586Z,98175.77
2018-07-01T00:40:35.418Z,98180.52
2018-07-01T00:43:04.325Z,98171.69
2018-07-01T00:45:32.964Z,98170.12
2018-07-01T00:48:01.667Z,98171.45
2018-07-01T00:50:30.428Z,98171.09
2018-07-01T00:52:59.150Z,98172.34
2018-07-01T00:55:28.059Z,98167.25
2018-07-01T00:57:56.732Z,98164.41
2018-07-01T01:00:30.404Z,98161.10
2018-07-01T01:02:59.230Z,98174.73
2018-07-01T01:05:28.084Z,98171.53
2018-07-01T01:07:56.931Z,98166.16
2018-07-01T01:10:26.159Z,98170.91
2018-07-01T01:12:55.615Z,98173.23
2018-07-01T01:15:24.433Z,98176.83
2018-07-01T01:17:53.254Z,98174.63
2018-07-01T01:20:21.981Z,98174.30
2018-07-01T01:22:50.710Z,98175.42
2018-07-01T01:25:19.496Z,98180.81
2018-07-01T01:27:48.128Z,98186.91
2018-07-01T01:30:16.848Z,98169.40
2018-07-01T01:32:45.460Z,98168.91
2018-07-01T01:35:14.224Z,98168.44
2018-07-01T01:37:43.067Z,98170.70
2018-07-01T01:40:12.380Z,98178.04
2018-07-01T01:42:52.271Z,98172.00
2018-07-01T01:45:31.336Z,98174.27
2018-07-01T01:48:07.236Z,98173.96
2018-07-01T01:51:11.777Z,98178.41
2018-07-01T01:53:59.752Z,98171.34
2018-07-01T02:03:09.441Z,98180.00
2018-07-01T02:05:49.651Z,98173.73
2018-07-01T02:08:24.635Z,98175.67
2018-07-01T02:10:58.914Z,98183.77
2018-07-01T02:13:27.869Z,98180.28
2018-07-01T02:16:06.887Z,98184.50
2018-07-01T02:18:38.014Z,98189.03
2018-07-01T02:21:14.881Z,98189.08
2018-07-01T02:23:49.532Z,98189.55
2018-07-01T02:26:17.975Z,98194.49
2018-07-01T02:28:46.378Z,98192.92
2018-07-01T02:31:14.755Z,98185.73
2018-07-01T02:33:43.229Z,98193.36
2018-07-01T02:36:12.688Z,98195.14
2018-07-01T02:38:41.146Z,98195.86
2018-07-01T02:41:09.653Z,98191.05
2018-07-01T02:43:38.066Z,98191.77
2018-07-01T02:46:06.511Z,98198.41
2018-07-01T02:48:34.891Z,98198.36
2018-07-01T02:51:03.312Z,98196.99
2018-07-01T02:53:31.614Z,98196.27
2018-07-01T02:56:00.878Z,98185.90
2018-07-01T02:58:29.222Z,98188.59
2018-07-01T03:00:57.683Z,98182.61
2018-07-01T03:03:26.035Z,98186.23
2018-07-01T03:05:54.415Z,98191.17
2018-07-01T03:08:22.741Z,98188.91
2018-07-01T03:10:51.056Z,98185.02
2018-07-01T03:13:19.667Z,98184.77
2018-07-01T03:15:47.991Z,98186.63
2018-07-01T03:21:02.602Z,98190.17
2018-07-01T03:23:31.149Z,98187.70
2018-07-01T03:25:59.589Z,98186.73
2018-07-01T03:28:28.502Z,98199.54
2018-07-01T03:30:56.920Z,98193.77
2018-07-01T03:33:25.242Z,98204.02
2018-07-01T03:35:53.601Z,98204.14
2018-07-01T03:38:22.014Z,98206.25
2018-07-01T03:40:50.442Z,98196.95
2018-07-01T03:43:18.962Z,98206.97
2018-07-01T03:45:47.318Z,98207.92
2018-07-01T03:48:15.627Z,98204.92
2018-07-01T03:50:43.990Z,98214.45
2018-07-01T03:53:12.291Z,98211.41
2018-07-01T03:55:40.890Z,98197.39
2018-07-01T03:58:09.169Z,98209.73
2018-07-01T04:00:37.582Z,98212.29
2018-07-01T04:03:06.043Z,98214.72
2018-07-01T04:05:34.435Z,98215.19
2018-07-01T04:08:02.869Z,98223.75
2018-07-01T04:10:31.238Z,98214.20
2018-07-01T04:12:59.658Z,98215.42
2018-07-01T04:15:28.024Z,98216.52
2018-07-01T04:17:56.390Z,98209.30
2018-07-01T04:20:24.760Z,98216.41
2018-07-01T04:22:53.540Z,98223.78
2018-07-01T04:25:22.012Z,98225.11
2018-07-01T04:27:50.407Z,98221.47
2018-07-01T04:30:18.801Z,98220.98
2018-07-01T04:32:47.167Z,98219.66
2018-07-01T04:35:15.507Z,98215.44
2018-07-01T04:37:44.131Z,98221.38
2018-07-01T04:40:12.481Z,98222.45
2018-07-01T04:42:40.853Z,98224.50
2018-07-01T04:45:09.238Z,98225.56
2018-07-01T04:47:37.543Z,98226.07
2018-07-01T04:50:06.099Z,98226.41
2018-07-01T04:52:34.492Z,98232.95
2018-07-01T04:55:02.975Z,98237.91
2018-07-01T04:57:31.402Z,98237.53
2018-07-01T04:59:59.698Z,98232.41
2018-07-01T05:02:28.051Z,98238.48
2018-07-01T05:04:56.293Z,98244.42
2018-07-01T05:07:24.670Z,98245.48
2018-07-01T05:09:53.093Z,98247.22
2018-07-01T05:12:21.501Z,98244.52
2018-07-01T05:14:49.853Z,98238.73
2018-07-01T05:17:18.173Z,98235.86
2018-07-01T05:19:46.563Z,98241.76
2018-07-01T05:22:15.584Z,98245.41
2018-07-01T05:24:43.998Z,98250.80
2018-07-01T05:27:12.402Z,98249.56
2018-07-01T05:29:40.723Z,98255.46
2018-07-01T05:32:09.102Z,98248.90
2018-07-01T05:34:37.539Z,98253.89
2018-07-01T05:37:05.986Z,98251.41
2018-07-01T05:39:34.308Z,98245.91
2018-07-01T05:42:02.650Z,98250.13
2018-07-01T05:44:31.160Z,98255.72
2018-07-01T05:46:59.564Z,98251.06
2018-07-01T05:49:28.069Z,98249.75
2018-07-01T05:51:56.373Z,98245.75
2018-07-01T05:54:24.720Z,98255.98
2018-07-01T05:56:53.095Z,98248.03
2018-07-01T05:59:21.457Z,98242.75
2018-07-01T06:01:49.827Z,98244.81
2018-07-01T06:04:18.331Z,98243.62
2018-07-01T06:06:46.740Z,98244.23
2018-07-01T06:09:15.148Z,98245.63
2018-07-01T06:11:43.666Z,98244.83
2018-07-01T06:14:12.069Z,98238.45
2018-07-01T06:16:40.465Z,98239.11
2018-07-01T06:19:09.155Z,98248.20
2018-07-01T06:21:37.763Z,98248.25
2018-07-01T06:24:06.158Z,98250.91
2018-07-01T06:26:34.548Z,98241.16
2018-07-01T06:29:02.997Z,98239.44
2018-07-01T06:31:31.727Z,98239.69
2018-07-01T06:34:00.264Z,98246.06
2018-07-01T06:36:28.777Z,98250.03
2018-07-01T06:38:57.362Z,98251.30
2018-07-01T06:41:25.775Z,98256.39
2018-07-01T06:43:54.379Z,98250.84
2018-07-01T06:46:22.794Z,98248.19
2018-07-01T06:48:51.157Z,98247.45
2018-07-01T06:51:19.517Z,98249.82
2018-07-01T06:53:47.850Z,98246.67
2018-07-01T06:56:16.176Z,98253.44
2018-07-01T06:58:44.575Z,98244.58
2018-07-01T07:01:12.903Z,98246.67
2018-07-01T07:03:41.255Z,98246.94
2018-07-01T07:06:09.706Z,98241.62
2018-07-01T07:08:38.165Z,98251.91
2018-07-01T07:11:06.871Z,98247.11
2018-07-01T07:13:35.317Z,98246.32
2018-07-01T07:16:04.452Z,98249.74
2018-07-01T07:18:32.802Z,98255.11
2018-07-01T07:21:01.214Z,98252.54
2018-07-01T07:23:29.572Z,98253.77
2018-07-01T07:25:57.923Z,98254.66
2018-07-01T07:28:26.321Z,98259.67
2018-07-01T07:30:54.812Z,98257.33
2018-07-01T07:33:23.165Z,98265.60
2018-07-01T07:35:51.609Z,98265.80
2018-07-01T07:41:39.774Z,98263.16
2018-07-01T07:44:15.293Z,98264.95
2018-07-01T07:46:46.055Z,98265.74
2018-07-01T07:49:14.880Z,98262.44
2018-07-01T07:51:46.001Z,98256.73
2018-07-01T07:54:26.498Z,98259.86
2018-07-01T07:56:54.823Z,98257.92
2018-07-01T07:59:24.275Z,98260.30
2018-07-01T08:01:52.696Z,98264.31
2018-07-01T08:04:21.181Z,98264.20
2018-07-01T08:06:51.540Z,98265.80
2018-07-01T08:09:19.877Z,98259.84
2018-07-01T08:11:48.925Z,98254.54
2018-07-01T08:14:17.700Z,98266.16
2018-07-01T08:16:46.162Z,98254.31
2018-07-01T08:19:14.415Z,98257.34
2018-07-01T08:21:43.133Z,98252.64
2018-07-01T08:24:11.855Z,98254.34
2018-07-01T08:26:40.208Z,98250.33
2018-07-01T08:29:08.626Z,98249.34
2018-07-01T08:31:36.948Z,98245.11
2018-07-01T08:34:05.344Z,98244.27
2018-07-01T08:36:33.847Z,98240.48
2018-07-01T08:39:02.613Z,98247.20
2018-07-01T08:41:41.480Z,98239.16
2018-07-01T08:44:09.808Z,98238.08
2018-07-01T08:46:38.195Z,98239.59
2018-07-01T08:49:06.749Z,98244.53
2018-07-01T08:51:35.438Z,98245.11
2018-07-01T08:54:05.036Z,98240.72
2018-07-01T08:56:33.996Z,98242.46
2018-07-01T08:59:02.404Z,98246.20
2018-07-01T09:01:31.067Z,98239.53
2018-07-01T09:03:59.697Z,98242.88
2018-07-01T09:06:28.082Z,98239.36
2018-07-01T09:08:56.544Z,98238.19
2018-07-01T09:11:28.616Z,98240.53
2018-07-01T09:13:57.473Z,98240.53
2018-07-01T09:16:25.808Z,98242.73
2018-07-01T09:18:55.068Z,98242.91
2018-07-01T09:21:23.511Z,98238.66
2018-07-01T09:23:51.901Z,98243.02
2018-07-01T09:26:20.270Z,98241.77
2018-07-01T09:28:48.617Z,98247.26
2018-07-01T09:31:17.450Z,98239.86
2018-07-01T09:33:45.980Z,98242.21
2018-07-01T09:36:14.813Z,98236.47
2018-07-01T09:38:43.244Z,98228.08
2018-07-01T09:41:11.586Z,98235.06
2018-07-01T09:43:39.974Z,98231.70
2018-07-01T09:46:09.978Z,98238.67
2018-07-01T09:48:38.240Z,98233.41
2018-07-01T09:51:06.607Z,98233.37
2018-07-01T09:53:34.975Z,98245.56
2018-07-01T09:56:03.415Z,98234.38
2018-07-01T09:58:31.827Z,98242.00
2018-07-01T10:01:00.243Z,98247.70
2018-07-01T10:03:28.456Z,98246.33
2018-07-01T10:05:56.806Z,98249.21
2018-07-01T10:08:25.146Z,98242.13
2018-07-01T10:10:53.446Z,98242.76
2018-07-01T10:13:22.114Z,98245.54
2018-07-01T10:15:50.390Z,98240.41
2018-07-01T10:18:19.029Z,98233.88
2018-07-01T10:20:47.317Z,98225.25
2018-07-01T10:23:15.691Z,98222.47
2018-07-01T10:25:44.243Z,98223.43
2018-07-01T10:28:12.633Z,98225.66
2018-07-01T10:30:41.005Z,98220.57
2018-07-01T10:33:09.323Z,98220.56
2018-07-01T10:35:37.705Z,98212.67
2018-07-01T10:38:06.185Z,98214.97
2018-07-01T10:40:34.573Z,98224.21
2018-07-01T10:43:02.947Z,98221.22
2018-07-01T10:45:31.276Z,98215.17
2018-07-01T10:47:59.566Z,98208.01
2018-07-01T10:50:27.999Z,98206.87
2018-07-01T10:52:56.314Z,98218.41
2018-07-01T10:55:24.770Z,98206.17
2018-07-01T10:57:53.122Z,98202.66
2018-07-01T11:00:21.450Z,98208.39
2018-07-01T11:02:49.831Z,98204.39
2018-07-01T11:05:18.132Z,98200.42
2018-07-01T11:07:46.691Z,98206.59
2018-07-01T11:10:15.064Z,98203.74
2018-07-01T11:12:43.325Z,98196.70
2018-07-01T11:15:11.681Z,98198.57
2018-07-01T11:17:40.006Z,98189.92
2018-07-01T11:20:08.594Z,98191.64
2018-07-01T11:22:36.933Z,98196.49
2018-07-01T11:25:05.372Z,98186.37
2018-07-01T11:27:33.900Z,98189.00
2018-07-01T11:30:05.536Z,98187.97
2018-07-01T11:32:33.889Z,98188.16
2018-07-01T11:35:03.127Z,98182.98
2018-07-01T11:37:31.533Z,98183.89
2018-07-01T11:39:59.872Z,98187.61
2018-07-01T11:42:28.347Z,98184.35
2018-07-01T11:44:56.865Z,98184.86
2018-07-01T11:47:25.173Z,98184.34
2018-07-01T11:49:53.482Z,98186.02
2018-07-01T11:52:21.774Z,98187.45
2018-07-01T11:54:50.072Z,98184.79
2018-07-01T11:57:18.503Z,98180.97
2018-07-01T11:59:46.761Z,98184.77
2018-07-01T12:02:15.582Z,98182.59
2018-07-01T12:05:02.956Z,98183.98
2018-07-01T12:07:12.708Z,98182.45
2018-07-01T12:09:41.039Z,98176.77
2018-07-01T12:12:09.528Z,98172.69
2018-07-01T12:14:38.012Z,98167.78
2018-07-01T12:17:06.302Z,98168.78
2018-07-01T12:19:34.664Z,98171.88
2018-07-01T12:22:03.466Z,98167.53
2018-07-01T12:24:33.230Z,98165.88
2018-07-01T12:27:01.679Z,98161.66
2018-07-01T12:29:30.602Z,98157.55
2018-07-01T12:31:59.056Z,98160.34
2018-07-01T12:34:27.406Z,98156.00
2018-07-01T12:36:55.766Z,98155.94
2018-07-01T12:39:24.149Z,98142.95
2018-07-01T12:41:52.488Z,98151.11
2018-07-01T12:44:20.900Z,98142.66
2018-07-01T12:46:49.335Z,98147.36
2018-07-01T12:49:17.880Z,98148.83
2018-07-01T12:51:46.148Z,98149.83
2018-07-01T12:54:14.512Z,98144.31
2018-07-01T12:56:42.945Z,98151.83
2018-07-01T12:59:11.231Z,98142.69
2018-07-01T13:01:39.514Z,98139.13
2018-07-01T13:04:07.916Z,98135.08
2018-07-01T13:06:36.389Z,98140.83
2018-07-01T13:09:09.423Z,98139.08
2018-07-01T13:11:37.852Z,98128.59
2018-07-01T13:14:06.277Z,98120.57
2018-07-01T13:16:34.788Z,98120.16
2018-07-01T13:19:03.140Z,98125.16
2018-07-01T13:21:31.478Z,98126.25
2018-07-01T13:24:00.062Z,98125.48
2018-07-01T13:26:28.414Z,98118.78
2018-07-01T13:28:56.802Z,98113.16
2018-07-01T13:31:25.160Z,98112.66
2018-07-01T13:33:53.597Z,98112.00
2018-07-01T13:36:21.949Z,98113.78
2018-07-01T13:38:50.335Z,98117.07
2018-07-01T13:41:19.279Z,98116.34
2018-07-01T13:43:47.713Z,98118.18
2018-07-01T13:46:16.197Z,98106.19
2018-07-01T13:48:44.650Z,98121.84
2018-07-01T13:51:12.977Z,98118.75
2018-07-01T13:53:41.373Z,98119.24
2018-07-01T13:56:09.741Z,98124.70
2018-07-01T13:58:38.017Z,98117.14
2018-07-01T14:01:06.702Z,98118.33
2018-07-01T14:03:35.191Z,98111.55
2018-07-01T14:06:03.698Z,98118.23
2018-07-01T14:08:32.244Z,98114.45
2018-07-01T14:11:00.598Z,98115.61
2018-07-01T14:13:29.108Z,98107.76
2018-07-01T14:15:57.509Z,98100.55
2018-07-01T14:18:25.993Z,98114.52
2018-07-01T14:20:54.381Z,98109.73
2018-07-01T14:23:22.755Z,98102.77
2018-07-01T14:25:51.112Z,98102.00
2018-07-01T14:28:19.486Z,98101.20
2018-07-01T14:30:47.869Z,98101.10
2018-07-01T14:33:16.320Z,98098.16
2018-07-01T14:35:44.673Z,98095.66
2018-07-01T14:38:13.231Z,98095.47
2018-07-01T14:40:41.665Z,98085.79
2018-07-01T14:43:10.039Z,98085.46
2018-07-01T14:45:38.457Z,98081.44
2018-07-01T14:48:09.296Z,98079.67
2018-07-01T14:50:40.437Z,98080.59
2018-07-01T14:53:10.603Z,98079.63
2018-07-01T14:55:51.189Z,98081.54
2018-07-01T14:58:29.421Z,98076.77
2018-07-01T15:00:57.918Z,98076.98
2018-07-01T15:03:26.615Z,98086.34
2018-07-01T15:05:55.710Z,98084.14
2018-07-01T15:08:24.076Z,98088.48
2018-07-01T15:10:54.293Z,98078.67
2018-07-01T15:13:23.096Z,98084.95
2018-07-01T15:15:51.501Z,98080.06
2018-07-01T15:18:19.925Z,98073.73
2018-07-01T15:20:48.321Z,98077.65
2018-07-01T15:23:16.759Z,98077.20
2018-07-01T15:25:45.125Z,98077.35
2018-07-01T15:28:13.605Z,98075.17
2018-07-01T15:30:42.126Z,98076.41
2018-07-01T15:33:10.770Z,98072.87
2018-07-01T15:35:39.107Z,98077.66
2018-07-01T15:38:07.513Z,98071.27
2018-07-01T15:40:35.830Z,98069.17
2018-07-01T15:43:04.170Z,98065.87
2018-07-01T15:45:32.477Z,98059.13
2018-07-01T15:48:00.939Z,98057.19
2018-07-01T15:50:29.450Z,98052.45
2018-07-01T15:52:57.866Z,98051.67
2018-07-01T15:55:26.182Z,98049.79
2018-07-01T15:57:54.704Z,98051.14
2018-07-01T16:00:23.002Z,98045.44
2018-07-01T16:02:51.366Z,98053.09
2018-07-01T16:05:19.765Z,98046.59
2018-07-01T16:07:48.077Z,98043.13
2018-07-01T16:10:16.481Z,98046.55
2018-07-01T16:12:45.883Z,98051.59
2018-07-01T16:15:15.872Z,98050.97
2018-07-01T16:20:21.372Z,98047.38
2018-07-01T16:22:56.239Z,98042.66
2018-07-01T16:25:30.421Z,98047.20
2018-07-01T16:28:10.703Z,98042.99
2018-07-01T16:30:53.598Z,98037.03
2018-07-01T16:33:29.363Z,98035.56
2018-07-01T16:35:59.059Z,98039.94
2018-07-01T16:38:28.187Z,98045.56
2018-07-01T16:40:56.764Z,98044.61
2018-07-01T16:43:25.167Z,98044.78
2018-07-01T16:45:53.856Z,98048.63
2018-07-01T16:48:22.427Z,98046.30
2018-07-01T16:50:50.857Z,98043.34
2018-07-01T16:53:19.339Z,98044.39
2018-07-01T16:55:49.371Z,98048.55
2018-07-01T16:58:19.089Z,98051.89
2018-07-01T17:00:47.533Z,98050.02
2018-07-01T17:03:15.884Z,98052.14
2018-07-01T17:05:44.512Z,98055.15
2018-07-01T17:08:13.040Z,98056.38
2018-07-01T17:10:41.761Z,98055.32
2018-07-01T17:13:11.551Z,98057.47
2018-07-01T17:15:40.620Z,98056.31
2018-07-01T17:18:09.089Z,98052.89
2018-07-01T17:20:37.501Z,98048.78
2018-07-01T17:23:06.014Z,98051.05
2018-07-01T17:25:38.711Z,98055.01
2018-07-01T17:28:07.341Z,98049.27
2018-07-01T17:30:49.197Z,98047.39
2018-07-01T17:33:23.585Z,98052.26
2018-07-01T17:35:54.859Z,98050.00
2018-07-01T17:38:23.746Z,98053.90
2018-07-01T17:40:52.056Z,98047.16
2018-07-01T17:43:20.517Z,98047.79
2018-07-01T17:45:48.823Z,98055.64
2018-07-01T17:48:17.323Z,98049.82
2018-07-01T17:50:53.597Z,98052.86
2018-07-01T17:53:33.137Z,98047.12
2018-07-01T17:56:03.994Z,98052.53
2018-07-01T17:58:32.632Z,98044.58
2018-07-01T18:01:11.788Z,98041.77
2018-07-01T18:03:41.224Z,98048.58
2018-07-01T18:06:09.943Z,98051.16
2018-07-01T18:08:50.312Z,98046.50
2018-07-01T18:11:19.372Z,98042.25
2018-07-01T18:13:48.167Z,98041.72
2018-07-01T18:16:17.346Z,98045.55
2018-07-01T18:18:47.023Z,98047.97
2018-07-01T18:21:20.813Z,98057.78
2018-07-01T18:24:19.504Z,98049.00
2018-07-01T18:26:17.700Z,98046.43
2018-07-01T18:28:55.766Z,98054.02
2018-07-01T18:31:14.991Z,98055.74
2018-07-01T18:33:44.916Z,98057.09
2018-07-01T18:36:13.570Z,98054.37
2018-07-01T18:38:42.355Z,98056.05
2018-07-01T18:41:11.561Z,98050.08
2018-07-01T18:43:40.728Z,98054.48
2018-07-01T18:46:09.642Z,98053.23
2018-07-01T18:48:39.246Z,98056.42
2018-07-01T18:51:07.936Z,98055.69
2018-07-01T18:53:36.698Z,98058.55
2018-07-01T18:56:06.028Z,98062.41
2018-07-01T18:58:34.910Z,98055.31
2018-07-01T19:01:03.701Z,98060.59
2018-07-01T19:03:32.441Z,98056.44
2018-07-01T19:06:01.377Z,98064.55
2018-07-01T19:08:30.079Z,98061.59
2018-07-01T19:10:58.812Z,98067.64
2018-07-01T19:13:27.629Z,98064.77
2018-07-01T19:15:56.736Z,98068.99
2018-07-01T19:18:25.634Z,98073.98
2018-07-01T19:20:56.186Z,98076.02
2018-07-01T19:23:24.974Z,98073.63
2018-07-01T19:25:53.636Z,98079.08
2018-07-01T19:28:22.425Z,98082.78
2018-07-01T19:30:51.215Z,98079.25
2018-07-01T19:33:20.042Z,98082.08
2018-07-01T19:35:48.730Z,98092.70
2018-07-01T19:38:17.781Z,98093.49
2018-07-01T19:40:46.615Z,98090.54
2018-07-01T19:43:15.558Z,98095.23
2018-07-01T19:45:44.561Z,98097.02
2018-07-01T19:48:13.545Z,98105.39
2018-07-01T19:50:50.985Z,98111.34
2018-07-01T19:53:21.638Z,98112.44
2018-07-01T19:55:55.367Z,98114.45
2018-07-01T19:58:25.250Z,98113.72
2018-07-01T20:00:53.968Z,98115.01
2018-07-01T20:03:23.086Z,98120.03
2018-07-01T20:05:52.911Z,98121.12
2018-07-01T20:08:26.862Z,98127.45
2018-07-01T20:10:56.810Z,98126.34
2018-07-01T20:13:25.683Z,98127.23
2018-07-01T20:15:54.535Z,98128.11
2018-07-01T20:18:32.559Z,98129.19
2018-07-01T20:21:01.086Z,98131.48
2018-07-01T20:23:29.576Z,98130.31
2018-07-01T20:25:58.839Z,98123.89
2018-07-01T20:28:27.869Z,98131.02
2018-07-01T20:30:56.449Z,98134.88
2018-07-01T20:33:24.871Z,98132.27
2018-07-01T20:35:53.291Z,98129.73
2018-07-01T20:38:22.684Z,98125.91
2018-07-01T20:40:52.117Z,98125.10
2018-07-01T20:43:21.539Z,98128.14
2018-07-01T20:45:54.409Z,98127.57
2018-07-01T20:48:22.844Z,98121.87
2018-07-01T20:50:51.452Z,98127.47
2018-07-01T20:53:20.102Z,98125.46
2018-07-01T20:55:49.044Z,98120.12
2018-07-01T20:58:17.460Z,98126.77
2018-07-01T21:00:45.989Z,98122.81
2018-07-01T21:03:14.438Z,98127.69
2018-07-01T21:05:42.824Z,98124.00
2018-07-01T21:08:11.085Z,98116.96
2018-07-01T21:10:39.504Z,98123.64
2018-07-01T21:13:07.935Z,98127.55
2018-07-01T21:15:36.518Z,98127.03
2018-07-01T21:18:05.111Z,98129.37
2018-07-01T21:20:33.823Z,98131.61
2018-07-01T21:23:02.126Z,98135.83
2018-07-01T21:25:30.487Z,98130.10
2018-07-01T21:27:58.858Z,98132.94
2018-07-01T21:30:27.318Z,98136.29
2018-07-01T21:32:55.757Z,98137.97
2018-07-01T21:35:24.631Z,98132.95
2018-07-01T21:37:53.343Z,98130.72
2018-07-01T21:40:21.720Z,98136.95
2018-07-01T21:42:50.051Z,98139.22
2018-07-01T21:45:18.575Z,98139.02
2018-07-01T21:47:47.078Z,98137.91
2018-07-01T21:50:15.450Z,98137.98
2018-07-01T21:52:43.940Z,98139.21
2018-07-01T21:55:12.290Z,98144.88
2018-07-01T21:57:40.580Z,98145.39
2018-07-01T22:00:10.092Z,98140.58
2018-07-01T22:02:38.589Z,98138.12
2018-07-01T22:05:07.433Z,98139.55
2018-07-01T22:07:35.733Z,98145.31
2018-07-01T22:10:04.262Z,98150.44
2018-07-01T22:12:44.007Z,98144.16
2018-07-01T22:15:27.817Z,98149.09
2018-07-01T22:17:57.245Z,98148.87
2018-07-01T22:20:25.981Z,98148.17
2018-07-01T22:22:54.349Z,98144.30
2018-07-01T22:25:22.936Z,98148.20
2018-07-01T22:27:51.457Z,98148.45
2018-07-01T22:30:19.792Z,98148.54
2018-07-01T22:32:48.109Z,98147.65
2018-07-01T22:35:16.531Z,98154.34
2018-07-01T22:37:44.982Z,98155.95
2018-07-01T22:40:13.286Z,98157.48
2018-07-01T22:42:41.764Z,98155.78
2018-07-01T22:45:10.083Z,98155.54
2018-07-01T22:47:39.035Z,98153.58
2018-07-01T22:50:08.723Z,98155.61
2018-07-01T22:52:37.114Z,98157.66
2018-07-01T22:55:05.555Z,98161.98
2018-07-01T22:57:33.928Z,98163.38
2018-07-01T23:00:02.196Z,98161.05
2018-07-01T23:02:53.097Z,98156.21
2018-07-01T23:05:22.213Z,98159.10
2018-07-01T23:07:51.122Z,98153.17
2018-07-01T23:10:21.019Z,98156.34
2018-07-01T23:12:49.806Z,98155.15
2018-07-01T23:15:18.229Z,98150.33
2018-07-01T23:17:46.610Z,98153.61
2018-07-01T23:20:15.145Z,98147.92
2018-07-01T23:22:43.466Z,98152.16
2018-07-01T23:25:12.721Z,98150.55
2018-07-01T23:27:41.600Z,98151.53
2018-07-01T23:30:10.087Z,98149.75
2018-07-01T23:32:38.563Z,98151.89
2018-07-01T23:35:07.105Z,98146.56
2018-07-01T23:37:35.590Z,98151.63
2018-07-01T23:40:04.249Z,98149.92
2018-07-01T23:42:32.576Z,98145.83
2018-07-01T23:45:01.969Z,98137.26
2018-07-01T23:47:30.355Z,98141.59
2018-07-01T23:49:58.662Z,98137.52
2018-07-01T23:52:27.133Z,98146.31
2018-07-01T23:54:55.489Z,98145.94
2018-07-01T23:57:23.965Z,98137.09
2018-07-01T23:59:52.332Z,98136.11
